createdAt,value
2018-07-02T00:00:28.670Z,8.30
2018-07-02T00:02:58.620Z,9.43
2018-07-02T00:06:37.852Z,6.93
2018-07-02T00:09:07.810Z,8.03
2018-07-02T00:11:37.725Z,7.80
2018-07-02T00:14:07.877Z,9.97
2018-07-02T00:16:37.838Z,7.70
2018-07-02T00:19:07.871Z,8.00
2018-07-02T00:21:37.876Z,7.67
2018-07-02T00:24:08.107Z,9.03
2018-07-02T00:26:38.001Z,10.90
2018-07-02T00:29:07.986Z,8.50
2018-07-02T00:31:38.089Z,9.63
2018-07-02T00:34:08.050Z,8.03
2018-07-02T00:36:38.045Z,10.53
2018-07-02T00:39:10.639Z,11.93
2018-07-02T00:43:09.835Z,8.43
2018-07-02T00:45:39.837Z,8.40
2018-07-02T00:48:09.619Z,8.50
2018-07-02T00:50:39.470Z,8.03
2018-07-02T00:53:09.530Z,8.93
2018-07-02T00:55:39.525Z,9.70
2018-07-02T00:58:09.577Z,9.23
2018-07-02T01:00:39.538Z,11.77
2018-07-02T01:03:09.576Z,9.20
2018-07-02T01:05:39.590Z,8.57
2018-07-02T01:08:09.358Z,9.30
2018-07-02T01:10:39.178Z,13.30
2018-07-02T01:13:14.547Z,11.70
2018-07-02T01:15:56.324Z,13.83
2018-07-02T01:18:26.321Z,11.70
2018-07-02T01:20:56.352Z,19.53
2018-07-02T01:23:26.304Z,11.27
2018-07-02T01:25:56.243Z,11.20
2018-07-02T01:28:26.063Z,13.07
2018-07-02T01:30:55.992Z,12.40
2018-07-02T01:33:25.988Z,11.87
2018-07-02T01:35:56.098Z,14.10
2018-07-02T01:38:25.963Z,11.77
2018-07-02T01:40:56.069Z,12.33
2018-07-02T01:43:26.013Z,12.33
2018-07-02T01:45:55.964Z,14.20
2018-07-02T01:48:25.784Z,12.97
2018-07-02T01:50:55.596Z,13.27
2018-07-02T01:53:25.924Z,14.13
2018-07-02T01:55:55.898Z,13.27
2018-07-02T01:58:25.870Z,14.60
2018-07-02T02:00:55.917Z,12.77
2018-07-02T02:03:25.935Z,13.60
2018-07-02T02:05:55.870Z,13.07
2018-07-02T02:08:25.642Z,13.13
2018-07-02T02:10:55.449Z,15.07
2018-07-02T02:13:25.441Z,14.57
2018-07-02T02:15:55.499Z,14.00
2018-07-02T02:18:25.587Z,12.80
2018-07-02T02:20:55.492Z,11.97
2018-07-02T02:23:25.365Z,12.87
2018-07-02T02:25:55.330Z,13.00
2018-07-02T02:28:25.165Z,12.83
2018-07-02T02:30:54.949Z,12.30
2018-07-02T02:33:24.907Z,14.00
2018-07-02T02:35:54.931Z,14.00
2018-07-02T02:38:24.889Z,15.20
2018-07-02T02:40:54.681Z,14.20
2018-07-02T02:43:24.713Z,11.87
2018-07-02T02:45:54.685Z,13.90
2018-07-02T02:48:24.633Z,14.30
2018-07-02T02:50:54.381Z,14.67
2018-07-02T02:53:24.407Z,14.30
2018-07-02T02:55:54.448Z,12.60
2018-07-02T02:58:24.420Z,13.83
2018-07-02T03:00:54.460Z,11.07
2018-07-02T03:03:24.488Z,12.63
2018-07-02T03:05:54.544Z,11.83
2018-07-02T03:08:24.493Z,11.80
2018-07-02T03:10:54.284Z,11.57
2018-07-02T03:13:24.336Z,11.97
2018-07-02T03:15:54.316Z,13.53
2018-07-02T03:18:24.416Z,12.13
2018-07-02T03:20:54.369Z,14.77
2018-07-02T03:23:24.448Z,11.73
2018-07-02T03:25:54.428Z,12.73
2018-07-02T03:28:24.281Z,15.20
2018-07-02T03:30:54.041Z,12.47
2018-07-02T03:33:24.126Z,13.37
2018-07-02T03:35:54.102Z,13.10
2018-07-02T03:38:24.056Z,13.33
2018-07-02T03:40:53.818Z,15.53
2018-07-02T03:43:23.747Z,13.20
2018-07-02T03:45:53.714Z,14.07
2018-07-02T03:48:23.552Z,13.83
2018-07-02T03:50:53.421Z,13.67
2018-07-02T03:55:53.294Z,13.40
2018-07-02T03:58:23.302Z,19.03
2018-07-02T04:00:53.461Z,14.10
2018-07-02T04:03:23.622Z,13.73
2018-07-02T04:05:53.676Z,13.40
2018-07-02T04:08:23.491Z,14.37
2018-07-02T04:10:53.294Z,15.43
2018-07-02T04:13:23.259Z,16.47
2018-07-02T04:15:53.314Z,16.33
2018-07-02T04:18:23.353Z,18.73
2018-07-02T04:20:53.353Z,15.93
2018-07-02T04:23:23.316Z,19.47
2018-07-02T04:25:53.412Z,15.67
2018-07-02T04:28:23.153Z,19.03
2018-07-02T04:30:52.992Z,15.57
2018-07-02T04:33:22.832Z,15.10
2018-07-02T04:35:52.838Z,13.60
2018-07-02T04:38:22.837Z,13.13
2018-07-02T04:40:53.698Z,14.70
2018-07-02T04:43:23.594Z,12.27
2018-07-02T04:45:53.612Z,12.00
2018-07-02T04:48:23.387Z,13.20
2018-07-02T04:50:53.228Z,13.03
2018-07-02T04:53:23.257Z,11.73
2018-07-02T04:55:53.205Z,13.03
2018-07-02T04:58:23.116Z,13.00
2018-07-02T05:00:54.147Z,13.40
2018-07-02T05:03:24.214Z,13.53
2018-07-02T05:05:54.251Z,11.93
2018-07-02T05:08:25.103Z,12.20
2018-07-02T05:10:54.803Z,12.00
2018-07-02T05:13:24.693Z,12.20
2018-07-02T05:15:54.696Z,10.90
2018-07-02T05:18:24.666Z,10.47
2018-07-02T05:20:54.580Z,11.30
2018-07-02T05:23:24.581Z,10.23
2018-07-02T05:25:54.454Z,9.87
2018-07-02T05:28:24.240Z,10.33
2018-07-02T05:30:54.279Z,10.90
2018-07-02T05:33:24.216Z,11.00
2018-07-02T05:35:54.357Z,11.40
2018-07-02T05:38:24.272Z,10.87
2018-07-02T05:40:54.105Z,10.97
2018-07-02T05:43:24.102Z,10.33
2018-07-02T05:45:54.130Z,11.07
2018-07-02T05:48:23.882Z,12.63
2018-07-02T05:50:53.874Z,12.73
2018-07-02T05:53:23.910Z,11.23
2018-07-02T05:55:54.019Z,10.83
2018-07-02T05:58:24.020Z,15.17
2018-07-02T06:00:54.053Z,11.00
2018-07-02T06:03:24.131Z,10.87
2018-07-02T06:05:54.053Z,10.73
2018-07-02T06:08:23.805Z,11.73
2018-07-02T06:10:53.665Z,10.90
2018-07-02T06:13:23.777Z,10.13
2018-07-02T06:15:54.090Z,11.17
2018-07-02T06:18:24.365Z,10.77
2018-07-02T06:20:54.345Z,11.97
2018-07-02T06:23:24.325Z,13.33
2018-07-02T06:25:54.363Z,10.93
2018-07-02T06:28:24.162Z,10.50
2018-07-02T06:30:54.015Z,11.57
2018-07-02T06:33:24.024Z,11.93
2018-07-02T06:35:54.097Z,10.57
2018-07-02T06:38:24.056Z,11.03
2018-07-02T06:40:53.928Z,10.70
2018-07-02T06:43:23.928Z,9.90
2018-07-02T06:45:54.556Z,9.90
2018-07-02T06:48:24.398Z,10.70
2018-07-02T06:50:54.297Z,9.73
2018-07-02T06:53:24.233Z,9.87
2018-07-02T06:55:54.287Z,10.53
2018-07-02T06:58:24.398Z,11.03
2018-07-02T07:00:54.407Z,10.20
2018-07-02T07:03:24.324Z,10.20
2018-07-02T07:05:54.395Z,9.60
2018-07-02T07:08:24.274Z,10.87
2018-07-02T07:10:54.095Z,10.43
2018-07-02T07:13:24.089Z,10.43
2018-07-02T07:15:54.151Z,9.13
2018-07-02T07:18:24.125Z,9.87
2018-07-02T07:20:54.112Z,9.60
2018-07-02T07:23:24.041Z,9.27
2018-07-02T07:25:54.056Z,11.50
2018-07-02T07:28:23.830Z,10.43
2018-07-02T07:30:53.631Z,9.80
2018-07-02T07:33:23.546Z,9.43
2018-07-02T07:35:53.739Z,8.77
2018-07-02T07:38:23.782Z,10.10
2018-07-02T07:40:53.997Z,10.00
2018-07-02T07:43:24.024Z,10.63
2018-07-02T07:45:54.083Z,10.00
2018-07-02T07:48:23.980Z,9.80
2018-07-02T07:50:53.778Z,9.97
2018-07-02T07:53:23.645Z,9.70
2018-07-02T07:55:53.585Z,9.97
2018-07-02T07:58:23.595Z,9.93
2018-07-02T08:00:54.339Z,10.17
2018-07-02T08:03:24.352Z,10.23
2018-07-02T08:05:54.502Z,10.03
2018-07-02T08:08:24.309Z,10.27
2018-07-02T08:10:54.121Z,9.00
2018-07-02T08:13:23.924Z,10.77
2018-07-02T08:15:53.944Z,10.87
2018-07-02T08:18:23.979Z,9.43
2018-07-02T08:20:54.045Z,9.17
2018-07-02T08:23:24.094Z,9.43
2018-07-02T08:25:54.056Z,8.73
2018-07-02T08:28:23.852Z,9.33
2018-07-02T08:30:54.600Z,9.27
2018-07-02T08:33:24.684Z,8.53
2018-07-02T08:35:54.676Z,8.27
2018-07-02T08:38:24.671Z,9.20
2018-07-02T08:40:54.492Z,8.87
2018-07-02T08:43:24.532Z,8.50
2018-07-02T08:45:54.549Z,9.03
2018-07-02T08:48:24.321Z,8.53
2018-07-02T08:50:54.092Z,8.30
2018-07-02T08:53:24.129Z,10.47
2018-07-02T08:55:54.119Z,8.20
2018-07-02T08:58:24.085Z,8.20
2018-07-02T09:00:54.163Z,8.30
2018-07-02T09:03:24.104Z,8.57
2018-07-02T09:05:54.146Z,7.50
2018-07-02T09:08:23.893Z,8.07
2018-07-02T09:10:53.637Z,8.50
2018-07-02T09:13:23.649Z,7.80
2018-07-02T09:15:54.157Z,8.50
2018-07-02T09:18:24.103Z,8.60
2018-07-02T09:20:54.057Z,8.23
2018-07-02T09:23:24.116Z,8.03
2018-07-02T09:25:54.118Z,8.87
2018-07-02T09:28:24.011Z,9.23
2018-07-02T09:30:53.861Z,7.77
2018-07-02T09:33:23.905Z,7.87
2018-07-02T09:35:53.820Z,8.10
2018-07-02T09:38:23.794Z,8.23
2018-07-02T09:40:53.633Z,7.67
2018-07-02T09:43:23.528Z,9.07
2018-07-02T09:45:53.710Z,9.37
2018-07-02T09:48:23.344Z,9.10
2018-07-02T09:50:53.178Z,8.23
2018-07-02T09:53:23.113Z,8.27
2018-07-02T09:55:53.146Z,8.57
2018-07-02T09:58:23.018Z,8.83
2018-07-02T10:00:52.976Z,9.10
2018-07-02T10:03:22.943Z,8.77
2018-07-02T10:05:52.891Z,10.00
2018-07-02T10:08:22.705Z,10.27
2018-07-02T10:10:52.645Z,8.20
2018-07-02T10:13:22.564Z,7.70
2018-07-02T10:15:52.514Z,8.70
2018-07-02T10:18:22.601Z,8.10
2018-07-02T10:20:52.638Z,8.33
2018-07-02T10:23:22.676Z,7.87
2018-07-02T10:25:52.675Z,9.70
2018-07-02T10:28:22.490Z,7.70
2018-07-02T10:30:52.256Z,6.93
2018-07-02T10:33:22.338Z,7.67
2018-07-02T10:35:52.638Z,7.13
2018-07-02T10:38:22.610Z,8.00
2018-07-02T10:40:52.375Z,7.30
2018-07-02T10:43:22.761Z,7.57
2018-07-02T10:45:52.678Z,7.30
2018-07-02T10:48:22.565Z,7.50
2018-07-02T10:50:52.431Z,7.20
2018-07-02T10:53:22.491Z,7.40
2018-07-02T10:55:52.607Z,7.10
2018-07-02T10:58:22.531Z,7.37
2018-07-02T11:00:52.802Z,7.23
2018-07-02T11:03:22.935Z,7.00
2018-07-02T11:05:52.864Z,7.40
2018-07-02T11:08:22.728Z,7.83
2018-07-02T11:10:52.690Z,7.73
2018-07-02T11:13:22.724Z,8.10
2018-07-02T11:15:52.847Z,7.43
2018-07-02T11:18:22.901Z,7.60
2018-07-02T11:20:53.007Z,7.87
2018-07-02T11:23:23.090Z,7.40
2018-07-02T11:25:53.095Z,7.20
2018-07-02T11:28:23.078Z,8.10
2018-07-02T11:30:53.017Z,7.40
2018-07-02T11:33:23.211Z,7.20
2018-07-02T11:35:53.213Z,7.70
2018-07-02T11:38:23.267Z,7.23
2018-07-02T11:40:53.192Z,7.50
2018-07-02T11:43:23.148Z,7.67
2018-07-02T11:45:54.083Z,7.27
2018-07-02T11:48:23.986Z,7.73
2018-07-02T11:50:53.752Z,7.87
2018-07-02T11:53:23.921Z,7.33
2018-07-02T11:55:53.897Z,7.03
2018-07-02T11:58:23.906Z,7.70
2018-07-02T12:00:54.830Z,7.53
2018-07-02T12:03:24.860Z,8.00
2018-07-02T12:05:54.864Z,7.87
2018-07-02T12:08:24.718Z,8.03
2018-07-02T12:10:54.560Z,8.13
2018-07-02T12:13:24.814Z,8.10
2018-07-02T12:15:55.679Z,7.87
2018-07-02T12:18:25.807Z,7.60
2018-07-02T12:20:55.745Z,8.00
2018-07-02T12:23:25.737Z,7.80
2018-07-02T12:25:55.681Z,8.05
2018-07-02T12:28:25.582Z,8.05
2018-07-02T12:30:55.394Z,8.70
2018-07-02T12:33:25.518Z,7.80
2018-07-02T12:35:55.653Z,8.18
2018-07-02T12:38:25.622Z,8.65
2018-07-02T12:40:55.497Z,7.87
2018-07-02T12:43:25.515Z,7.90
2018-07-02T12:45:55.539Z,8.00
2018-07-02T12:48:25.411Z,7.70
2018-07-02T12:50:55.200Z,7.92
2018-07-02T12:53:25.266Z,8.00
2018-07-02T12:55:55.352Z,8.78
2018-07-02T12:58:25.451Z,7.70
2018-07-02T13:00:55.564Z,7.08
2018-07-02T13:03:25.699Z,6.95
2018-07-02T13:05:55.616Z,7.62
2018-07-02T13:08:25.492Z,9.43
2018-07-02T13:10:55.301Z,6.95
2018-07-02T13:13:25.454Z,8.00
2018-07-02T13:15:55.562Z,7.53
2018-07-02T13:18:25.622Z,7.47
2018-07-02T13:20:55.849Z,7.37
2018-07-02T13:23:25.870Z,7.00
2018-07-02T13:25:55.876Z,7.87
2018-07-02T13:28:26.063Z,7.85
2018-07-02T13:30:56.012Z,6.97
2018-07-02T13:33:26.107Z,10.55
2018-07-02T13:35:56.248Z,6.67
2018-07-02T13:38:26.330Z,6.72
2018-07-02T13:40:56.122Z,7.20
2018-07-02T13:43:26.341Z,6.83
2018-07-02T13:45:56.467Z,7.20
2018-07-02T13:48:26.351Z,6.67
2018-07-02T13:50:56.522Z,7.12
2018-07-02T13:53:26.791Z,7.05
2018-07-02T13:55:56.865Z,7.35
2018-07-02T13:58:27.010Z,6.50
2018-07-02T14:00:57.170Z,8.50
2018-07-02T14:03:27.305Z,7.00
2018-07-02T14:05:57.402Z,6.95
2018-07-02T14:08:27.415Z,6.90
2018-07-02T14:10:57.313Z,8.80
2018-07-02T14:13:27.317Z,9.33
2018-07-02T14:15:57.357Z,7.22
2018-07-02T14:18:27.415Z,6.53
2018-07-02T14:20:57.629Z,6.28
2018-07-02T14:23:27.899Z,7.58
2018-07-02T14:25:58.138Z,6.40
2018-07-02T14:28:28.013Z,7.25
2018-07-02T14:30:57.752Z,10.28
2018-07-02T14:33:27.607Z,6.60
2018-07-02T14:35:57.793Z,6.42
2018-07-02T14:38:28.009Z,6.80
2018-07-02T14:40:58.044Z,7.37
2018-07-02T14:43:28.359Z,6.60
2018-07-02T14:45:58.472Z,7.05
2018-07-02T14:48:28.402Z,6.58
2018-07-02T14:50:58.402Z,7.70
2018-07-02T14:53:28.253Z,6.85
2018-07-02T14:55:58.418Z,7.05
2018-07-02T14:58:28.511Z,6.37
2018-07-02T15:00:58.596Z,6.97
2018-07-02T15:03:29.548Z,6.20
2018-07-02T15:05:59.619Z,6.72
2018-07-02T15:08:29.488Z,6.35
2018-07-02T15:10:59.432Z,6.65
2018-07-02T15:13:29.367Z,6.47
2018-07-02T15:15:59.437Z,6.40
2018-07-02T15:18:29.478Z,6.60
2018-07-02T15:20:59.527Z,6.05
2018-07-02T15:23:29.531Z,6.33
2018-07-02T15:25:59.577Z,6.33
2018-07-02T15:28:29.401Z,7.10
2018-07-02T15:30:59.418Z,9.00
2018-07-02T15:33:29.615Z,7.70
2018-07-02T15:35:59.709Z,6.53
2018-07-02T15:38:29.789Z,7.00
2018-07-02T15:40:59.820Z,6.65
2018-07-02T15:43:29.812Z,6.53
2018-07-02T15:45:59.873Z,6.80
2018-07-02T15:48:29.653Z,7.60
2018-07-02T15:50:59.651Z,7.65
2018-07-02T15:53:29.687Z,8.88
2018-07-02T15:55:59.678Z,6.28
2018-07-02T15:58:29.649Z,7.35
2018-07-02T16:00:59.922Z,7.60
2018-07-02T16:03:29.942Z,6.45
2018-07-02T16:05:59.957Z,6.55
2018-07-02T16:08:29.847Z,6.15
2018-07-02T16:10:59.958Z,7.60
2018-07-02T16:13:30.051Z,6.35
2018-07-02T16:16:00.201Z,6.28
2018-07-02T16:18:30.247Z,6.70
2018-07-02T16:21:00.452Z,6.60
2018-07-02T16:23:30.523Z,7.92
2018-07-02T16:26:00.666Z,8.18
2018-07-02T16:28:30.521Z,6.67
2018-07-02T16:31:00.524Z,6.60
2018-07-02T16:33:30.761Z,7.92
2018-07-02T16:36:00.796Z,7.40
2018-07-02T16:38:31.161Z,7.03
2018-07-02T16:47:48.720Z,6.42
2018-07-02T16:50:18.519Z,6.70
2018-07-02T16:52:48.617Z,6.40
2018-07-02T16:55:18.654Z,7.00
2018-07-02T16:57:48.711Z,6.60
2018-07-02T17:00:18.991Z,7.08
2018-07-02T17:02:49.087Z,7.72
2018-07-02T17:05:19.068Z,7.33
2018-07-02T17:07:48.864Z,7.78
2018-07-02T17:10:18.729Z,7.55
2018-07-02T17:12:48.562Z,7.30
2018-07-02T17:15:18.680Z,7.65
2018-07-02T17:17:48.797Z,7.47
2018-07-02T17:20:18.947Z,8.45
2018-07-02T17:22:48.969Z,7.55
2018-07-02T17:25:18.936Z,7.33
2018-07-02T17:27:48.811Z,7.20
2018-07-02T17:30:18.669Z,7.67
2018-07-02T17:32:48.658Z,7.90
2018-07-02T17:35:18.672Z,8.37
2018-07-02T17:37:48.657Z,8.43
2018-07-02T17:40:18.577Z,8.23
2018-07-02T17:42:48.393Z,8.30
2018-07-02T17:45:18.288Z,8.77
2018-07-02T17:47:48.222Z,8.33
2018-07-02T17:50:18.040Z,9.10
2018-07-02T17:52:47.997Z,8.93
2018-07-02T17:55:18.061Z,8.83
2018-07-02T17:57:47.958Z,8.40
2018-07-02T18:00:17.968Z,9.87
2018-07-02T18:02:47.951Z,9.60
2018-07-02T18:05:18.024Z,9.63
2018-07-02T18:07:47.847Z,9.93
2018-07-02T18:10:17.721Z,10.97
2018-07-02T18:12:47.555Z,9.77
2018-07-02T18:15:17.463Z,9.30
2018-07-02T18:17:47.437Z,9.90
2018-07-02T18:20:17.528Z,10.37
2018-07-02T18:22:47.558Z,10.70
2018-07-02T18:25:17.534Z,9.73
2018-07-02T18:27:47.430Z,9.90
2018-07-02T18:30:17.239Z,10.03
2018-07-02T18:32:47.174Z,10.77
2018-07-02T18:35:17.236Z,10.43
2018-07-02T18:37:47.319Z,12.67
2018-07-02T18:40:17.290Z,12.00
2018-07-02T18:42:47.107Z,11.40
2018-07-02T18:45:17.052Z,11.80
2018-07-02T18:47:46.948Z,12.80
2018-07-02T18:50:16.765Z,12.83
2018-07-02T18:52:46.760Z,13.57
2018-07-02T18:55:16.646Z,13.50
2018-07-02T18:57:46.648Z,16.77
2018-07-02T19:00:16.754Z,14.57
2018-07-02T19:02:46.832Z,13.97
2018-07-02T19:05:16.844Z,16.63
2018-07-02T19:07:46.899Z,12.53
2018-07-02T19:10:16.753Z,13.60
2018-07-02T19:12:46.886Z,14.30
2018-07-02T19:15:17.564Z,12.80
2018-07-02T19:17:47.723Z,12.80
2018-07-02T19:20:17.747Z,13.60
2018-07-02T19:22:47.818Z,15.47
2018-07-02T19:25:17.856Z,13.23
2018-07-02T19:27:47.773Z,14.80
2018-07-02T19:30:17.608Z,13.67
2018-07-02T19:32:47.791Z,13.27
2018-07-02T19:35:17.841Z,14.73
2018-07-02T19:37:48.073Z,12.57
2018-07-02T19:40:18.131Z,13.40
2018-07-02T19:42:48.073Z,26.57
2018-07-02T19:45:18.026Z,15.27
2018-07-02T19:47:47.885Z,25.73
2018-07-02T19:50:17.743Z,23.17
2018-07-02T19:52:47.813Z,14.33
2018-07-02T19:55:17.796Z,13.90
2018-07-02T19:57:47.641Z,13.63
2018-07-02T20:00:17.580Z,14.03
2018-07-02T20:02:47.608Z,14.20
2018-07-02T20:05:17.721Z,14.23
2018-07-02T20:07:47.552Z,14.77
2018-07-02T20:10:17.395Z,14.40
2018-07-02T20:12:47.165Z,14.60
2018-07-02T20:15:17.147Z,14.00
2018-07-02T20:17:47.194Z,14.87
2018-07-02T20:20:17.216Z,15.30
2018-07-02T20:22:47.213Z,15.23
2018-07-02T20:25:17.214Z,15.23
2018-07-02T20:27:46.994Z,15.43
2018-07-02T20:30:16.977Z,17.27
2018-07-02T20:32:47.188Z,15.83
2018-07-02T20:35:17.437Z,16.33
2018-07-02T20:37:47.732Z,17.93
2018-07-02T20:40:17.672Z,17.10
2018-07-02T20:42:47.502Z,17.13
2018-07-02T20:45:17.514Z,16.97
2018-07-02T20:47:47.364Z,17.67
2018-07-02T20:50:17.197Z,18.67
2018-07-02T20:52:47.169Z,17.63
2018-07-02T20:55:17.174Z,18.40
2018-07-02T20:57:47.203Z,19.37
2018-07-02T21:00:17.240Z,17.70
2018-07-02T21:02:47.142Z,18.33
2018-07-02T21:05:17.090Z,17.97
2018-07-02T21:07:46.925Z,18.93
2018-07-02T21:10:16.758Z,18.33
2018-07-02T21:12:46.652Z,18.17
2018-07-02T21:15:16.615Z,18.90
2018-07-02T21:17:46.744Z,17.33
2018-07-02T21:20:16.583Z,18.77
2018-07-02T21:22:46.578Z,19.73
2018-07-02T21:25:16.631Z,19.07
2018-07-02T21:27:46.485Z,19.47
2018-07-02T21:30:16.341Z,17.47
2018-07-02T21:32:46.366Z,18.27
2018-07-02T21:35:16.296Z,18.67
2018-07-02T21:37:46.360Z,19.17
2018-07-02T21:40:16.473Z,18.60
2018-07-02T21:42:46.359Z,18.90
2018-07-02T21:45:16.281Z,20.13
2018-07-02T21:47:46.139Z,19.80
2018-07-02T21:50:16.010Z,20.80
2018-07-02T21:52:46.022Z,20.23
2018-07-02T21:55:15.880Z,22.07
2018-07-02T21:57:45.927Z,20.87
2018-07-02T22:00:15.969Z,20.40
2018-07-02T22:02:45.936Z,19.87
2018-07-02T22:05:15.969Z,19.70
2018-07-02T22:07:45.794Z,21.07
2018-07-02T22:10:15.642Z,20.40
2018-07-02T22:12:45.513Z,21.20
2018-07-02T22:15:15.299Z,21.77
2018-07-02T22:17:45.313Z,21.70
2018-07-02T22:20:15.394Z,23.33
2018-07-02T22:22:45.383Z,22.87
2018-07-02T22:25:15.292Z,21.43
2018-07-02T22:27:45.146Z,20.60
2018-07-02T22:30:14.935Z,20.17
2018-07-02T22:32:44.922Z,20.20
2018-07-02T22:35:14.890Z,21.77
2018-07-02T22:37:44.881Z,21.80
2018-07-02T22:40:14.935Z,21.87
2018-07-02T22:42:44.719Z,21.27
2018-07-02T22:45:14.774Z,20.70
2018-07-02T22:47:44.585Z,22.27
2018-07-02T22:50:14.375Z,22.07
2018-07-02T22:52:44.398Z,21.97
2018-07-02T22:55:14.401Z,22.37
2018-07-02T22:57:44.288Z,23.30
2018-07-02T23:00:14.193Z,21.93
2018-07-02T23:02:44.158Z,21.10
2018-07-02T23:05:13.998Z,21.40
2018-07-02T23:07:43.834Z,21.27
2018-07-02T23:10:13.596Z,22.73
2018-07-02T23:12:43.401Z,22.23
2018-07-02T23:15:13.533Z,22.50
2018-07-02T23:17:43.555Z,21.97
2018-07-02T23:20:13.599Z,21.40
2018-07-02T23:23:01.718Z,20.03
2018-07-02T23:25:32.011Z,20.40
2018-07-02T23:28:02.735Z,20.37
2018-07-02T23:30:33.355Z,19.87
2018-07-02T23:33:03.418Z,20.63
2018-07-02T23:35:33.244Z,19.17
2018-07-02T23:38:03.359Z,19.50
2018-07-02T23:40:33.391Z,19.53
2018-07-02T23:43:03.176Z,19.57
2018-07-02T23:45:33.116Z,18.97
2018-07-02T23:48:03.454Z,18.90
2018-07-02T23:50:33.636Z,19.50
2018-07-02T23:53:03.757Z,20.60
2018-07-02T23:55:33.831Z,21.27
2018-07-02T23:58:03.757Z,21.23
